Time;durP1;ratioP1;P1;durP2;ratioP2;P2;SDS_P1;SDS_P2;PMS_P1;PMS_P2;Temp;Humidity;BMP_temperature;BMP_pressure;BME280_temperature;BME280_humidity;BME280_pressure;Samples;Min_cycle;Max_cycle;Signal;HPM_P1;HPM_P2
2023/03/29 00:01:00;;;;;;;6.07;3.65;;;6.90;99.90;;;;;;4936568;29;20195;-80
2023/03/29 00:03:27;;;;;;;8.05;4.20;;;6.90;99.90;;;;;;4936162;29;20187;-75
2023/03/29 00:05:56;;;;;;;9.05;4.28;;;6.90;99.90;;;;;;4936548;29;20310;-75
2023/03/29 00:08:24;;;;;;;6.97;3.90;;;6.90;99.90;;;;;;4937159;29;20188;-73
2023/03/29 00:10:50;;;;;;;6.32;3.97;;;6.90;99.90;;;;;;4935448;29;20274;-75
2023/03/29 00:13:17;;;;;;;6.00;3.58;;;6.90;99.90;;;;;;4936481;29;20219;-74
2023/03/29 00:15:43;;;;;;;6.32;4.03;;;6.90;99.90;;;;;;4936258;29;20194;-73
2023/03/29 00:18:08;;;;;;;7.25;3.83;;;6.80;99.90;;;;;;4936618;29;20231;-74
2023/03/29 00:20:34;;;;;;;8.85;3.60;;;6.80;99.90;;;;;;4936348;29;20187;-75
2023/03/29 00:23:02;;;;;;;6.10;3.90;;;6.80;99.90;;;;;;4937192;29;20190;-74
2023/03/29 00:25:27;;;;;;;7.47;3.50;;;6.70;99.90;;;;;;4936429;29;20211;-76
2023/03/29 00:27:53;;;;;;;6.75;3.55;;;6.80;99.90;;;;;;4919380;29;20191;-74
2023/03/29 00:30:19;;;;;;;5.53;3.83;;;6.70;99.90;;;;;;4937021;29;20246;-74
2023/03/29 00:32:45;;;;;;;5.78;3.17;;;6.80;99.90;;;;;;4935429;29;20250;-74
2023/03/29 00:35:11;;;;;;;6.40;3.42;;;6.80;99.90;;;;;;4936452;29;20191;-75
2023/03/29 00:37:37;;;;;;;6.18;3.40;;;6.80;99.90;;;;;;4936329;29;20686;-76
2023/03/29 00:40:09;;;;;;;7.45;3.70;;;6.80;99.90;;;;;;4936488;29;20194;-77
2023/03/29 00:42:35;;;;;;;5.72;3.47;;;6.80;99.90;;;;;;4937054;29;20523;-75
2023/03/29 00:45:04;;;;;;;6.70;3.40;;;6.80;99.90;;;;;;4934974;29;20211;-75
2023/03/29 00:47:42;;;;;;;9.77;3.38;;;6.80;99.90;;;;;;4951149;29;20195;-75
2023/03/29 00:50:21;;;;;;;7.28;3.75;;;6.80;99.90;;;;;;4935640;29;20281;-75
2023/03/29 00:53:11;;;;;;;7.03;3.35;;;6.80;99.90;;;;;;4951585;29;20619;-74
2023/03/29 00:55:54;;;;;;;6.82;3.47;;;6.80;99.90;;;;;;4936139;29;20632;-74
2023/03/29 00:58:34;;;;;;;7.88;3.72;;;6.80;99.90;;;;;;4951579;29;20179;-76
2023/03/29 01:01:07;;;;;;;7.65;3.55;;;6.70;99.90;;;;;;4937702;29;20191;-75
2023/03/29 01:03:40;;;;;;;5.18;3.38;;;6.80;99.90;;;;;;4938946;29;20627;-74
2023/03/29 01:06:09;;;;;;;5.30;3.55;;;6.80;99.90;;;;;;4939797;29;20211;-74
2023/03/29 01:08:48;;;;;;;9.90;3.65;;;6.70;99.90;;;;;;4938645;29;20198;-74
2023/03/29 01:11:26;;;;;;;9.45;3.67;;;6.70;99.90;;;;;;4938823;29;20695;-75
2023/03/29 01:13:58;;;;;;;7.80;3.58;;;6.70;99.90;;;;;;4940262;29;20251;-76
2023/03/29 01:16:27;;;;;;;5.50;3.60;;;6.70;99.90;;;;;;4939623;29;20179;-74
2023/03/29 01:18:53;;;;;;;6.60;3.90;;;6.70;99.90;;;;;;4953722;28;20230;-74
2023/03/29 01:21:24;;;;;;;9.18;3.80;;;6.70;99.90;;;;;;4938166;29;20648;-74
2023/03/29 01:24:08;;;;;;;10.45;3.45;;;6.70;99.90;;;;;;4939399;29;20250;-74
2023/03/29 01:26:42;;;;;;;6.97;3.80;;;6.80;99.90;;;;;;4938466;29;20750;-76
2023/03/29 01:29:19;;;;;;;7.85;3.58;;;6.80;99.90;;;;;;4938084;29;20182;-79
2023/03/29 01:31:51;;;;;;;8.02;3.63;;;6.80;99.90;;;;;;4939442;29;20179;-75
2023/03/29 01:34:42;;;;;;;5.90;3.40;;;6.80;99.90;;;;;;4938355;29;20229;-75
2023/03/29 01:37:27;;;;;;;7.20;3.47;;;6.80;99.90;;;;;;4938203;29;20187;-80
2023/03/29 01:39:53;;;;;;;6.93;3.53;;;6.80;99.90;;;;;;4939680;29;20175;-75
2023/03/29 01:42:46;;;;;;;7.40;3.53;;;6.80;99.90;;;;;;4939107;29;20637;-75
2023/03/29 01:45:23;;;;;;;6.75;3.70;;;6.80;99.90;;;;;;4936079;29;20231;-75
2023/03/29 01:48:18;;;;;;;6.32;3.70;;;6.70;99.90;;;;;;4938996;29;20168;-74
2023/03/29 01:50:53;;;;;;;5.40;3.60;;;6.80;99.90;;;;;;4939599;29;20250;-75
2023/03/29 01:53:29;;;;;;;10.65;3.75;;;6.80;99.90;;;;;;4954371;28;20189;-74
2023/03/29 01:56:01;;;;;;;7.85;3.45;;;6.80;99.90;;;;;;4938984;29;20179;-74
2023/03/29 01:58:32;;;;;;;6.40;4.05;;;6.70;99.90;;;;;;4938551;29;20164;-74
2023/03/29 02:01:04;;;;;;;7.28;4.32;;;6.70;99.90;;;;;;4939415;29;20168;-79
2023/03/29 02:03:32;;;;;;;7.03;4.10;;;6.70;99.90;;;;;;4939258;29;20180;-75
2023/03/29 02:05:59;;;;;;;9.57;4.50;;;6.70;99.90;;;;;;4953384;28;20639;-77
2023/03/29 02:08:28;;;;;;;8.15;4.25;;;6.70;99.90;;;;;;4938662;29;20270;-78
2023/03/29 02:10:56;;;;;;;7.30;4.40;;;6.70;99.90;;;;;;4938531;29;20187;-75
2023/03/29 02:13:22;;;;;;;9.65;4.47;;;6.70;99.90;;;;;;4937603;29;20192;-75
2023/03/29 02:15:48;;;;;;;8.75;4.50;;;6.70;99.90;;;;;;4937923;29;20195;-76
2023/03/29 02:18:16;;;;;;;8.07;4.68;;;6.70;99.90;;;;;;4953429;29;20234;-79
2023/03/29 02:20:47;;;;;;;8.43;5.13;;;6.70;99.90;;;;;;4937142;28;20243;-77
2023/03/29 02:23:22;;;;;;;7.65;4.63;;;6.70;99.90;;;;;;4936911;29;20227;-77
2023/03/29 02:25:52;;;;;;;10.13;4.63;;;6.70;99.90;;;;;;4937287;29;20662;-76
2023/03/29 02:28:23;;;;;;;7.70;5.05;;;6.70;99.90;;;;;;4937172;29;20206;-77
2023/03/29 02:30:54;;;;;;;7.18;4.75;;;6.70;99.90;;;;;;4953377;29;20171;-75
2023/03/29 02:33:44;;;;;;;8.80;4.97;;;6.70;99.90;;;;;;4953674;29;20635;-76
2023/03/29 02:36:21;;;;;;;8.20;5.20;;;6.70;99.90;;;;;;4952864;28;20187;-75
2023/03/29 02:38:47;;;;;;;8.20;4.97;;;6.70;99.90;;;;;;4937079;29;20175;-75
2023/03/29 02:41:15;;;;;;;9.73;5.45;;;6.70;99.90;;;;;;4952650;29;20191;-75
2023/03/29 02:43:42;;;;;;;10.30;5.63;;;6.70;99.90;;;;;;4952582;29;20183;-73
2023/03/29 02:46:11;;;;;;;9.02;5.05;;;6.80;99.90;;;;;;4936598;29;20211;-75
2023/03/29 02:48:37;;;;;;;9.93;5.20;;;6.70;99.90;;;;;;4936505;29;20186;-75
2023/03/29 02:51:12;;;;;;;8.35;5.50;;;6.80;99.90;;;;;;4936985;29;20540;-74
2023/03/29 02:53:57;;;;;;;8.93;5.57;;;6.80;99.90;;;;;;4952710;28;20178;-76
2023/03/29 02:56:22;;;;;;;9.10;5.60;;;6.80;99.90;;;;;;4952709;29;20175;-74
2023/03/29 02:58:48;;;;;;;12.07;5.50;;;6.70;99.90;;;;;;4953074;29;20679;-75
2023/03/29 03:01:16;;;;;;;8.80;5.20;;;6.70;99.90;;;;;;4937762;29;20207;-76
2023/03/29 03:03:43;;;;;;;8.85;5.35;;;6.60;99.90;;;;;;4937041;29;20219;-75
2023/03/29 03:06:11;;;;;;;8.43;5.35;;;6.70;99.90;;;;;;4920663;29;20237;-75
2023/03/29 03:08:37;;;;;;;8.00;5.22;;;6.60;99.90;;;;;;4936217;29;20187;-75
2023/03/29 03:11:03;;;;;;;11.07;5.65;;;6.70;99.90;;;;;;4936165;29;20218;-77
2023/03/29 03:13:28;;;;;;;11.90;5.72;;;6.70;99.90;;;;;;4952145;29;20215;-77
2023/03/29 03:15:54;;;;;;;9.40;5.47;;;6.70;99.90;;;;;;4920680;29;20243;-73
2023/03/29 03:18:21;;;;;;;14.68;6.05;;;6.70;99.90;;;;;;4935923;29;20235;-75
2023/03/29 03:20:57;;;;;;;8.98;4.90;;;6.70;99.90;;;;;;4937287;29;20187;-76
2023/03/29 03:23:24;;;;;;;12.15;5.20;;;6.70;99.90;;;;;;4936746;29;20183;-76
2023/03/29 03:25:51;;;;;;;11.80;5.47;;;6.70;99.90;;;;;;4951791;29;20671;-75
2023/03/29 03:28:18;;;;;;;8.30;5.45;;;6.70;99.90;;;;;;4935964;28;20247;-75
2023/03/29 03:30:44;;;;;;;10.40;5.82;;;6.70;99.90;;;;;;4937711;29;20215;-78
2023/03/29 03:33:33;;;;;;;12.88;5.95;;;6.70;99.90;;;;;;4938520;29;20207;-74
2023/03/29 03:36:34;;;;;;;10.38;5.88;;;6.70;99.90;;;;;;4940770;28;20286;-75
2023/03/29 03:39:04;;;;;;;10.05;5.47;;;6.70;99.90;;;;;;4952444;29;20198;-78
2023/03/29 03:41:31;;;;;;;11.05;6.20;;;6.70;99.90;;;;;;4935908;29;20184;-75
2023/03/29 03:43:57;;;;;;;10.93;5.78;;;6.70;99.90;;;;;;4921099;29;20187;-76
2023/03/29 03:46:23;;;;;;;12.43;5.90;;;6.70;99.90;;;;;;4936803;29;20211;-75
2023/03/29 03:48:49;;;;;;;10.30;5.80;;;6.70;99.90;;;;;;4952112;29;20195;-75
2023/03/29 03:51:21;;;;;;;9.40;5.82;;;6.70;99.90;;;;;;4936640;29;20559;-77
2023/03/29 03:53:48;;;;;;;9.95;5.85;;;6.70;99.90;;;;;;4935496;29;20323;-75
2023/03/29 03:56:34;;;;;;;12.88;6.10;;;6.70;99.90;;;;;;4945565;29;20205;-79
2023/03/29 03:59:21;;;;;;;9.90;5.97;;;6.70;99.90;;;;;;4936126;29;20632;-74
2023/03/29 04:01:57;;;;;;;11.93;5.60;;;6.70;99.90;;;;;;4935436;29;20194;-75
2023/03/29 04:04:24;;;;;;;10.73;5.93;;;6.70;99.90;;;;;;4936046;29;20179;-74
2023/03/29 04:07:02;;;;;;;10.00;6.00;;;6.70;99.90;;;;;;4951195;29;20214;-75
2023/03/29 04:09:46;;;;;;;10.15;6.22;;;6.70;99.90;;;;;;4936522;29;20171;-74
2023/03/29 04:12:31;;;;;;;14.07;6.50;;;6.70;99.90;;;;;;4951386;29;20234;-74
2023/03/29 04:14:57;;;;;;;13.60;6.43;;;6.70;99.90;;;;;;4950961;29;20179;-74
2023/03/29 04:17:25;;;;;;;14.25;6.40;;;6.80;99.90;;;;;;4935741;29;20227;-74
2023/03/29 04:19:57;;;;;;;12.00;6.55;;;6.80;99.90;;;;;;4951365;29;20175;-74
2023/03/29 04:22:25;;;;;;;13.13;6.78;;;6.80;99.90;;;;;;4951044;29;20542;-74
2023/03/29 04:24:52;;;;;;;9.65;6.18;;;6.80;99.90;;;;;;4935062;29;20275;-74
2023/03/29 04:27:38;;;;;;;9.40;6.10;;;6.80;99.90;;;;;;4935967;29;20735;-74
2023/03/29 04:30:12;;;;;;;12.50;6.53;;;6.80;99.90;;;;;;4935393;29;20179;-74
2023/03/29 04:33:02;;;;;;;12.10;6.68;;;6.80;99.90;;;;;;4934629;29;20191;-74
2023/03/29 04:35:28;;;;;;;13.20;6.78;;;6.80;99.90;;;;;;4935743;29;20183;-76
2023/03/29 04:37:54;;;;;;;12.50;6.65;;;6.80;99.90;;;;;;4950921;29;20191;-75
2023/03/29 04:40:21;;;;;;;11.15;6.60;;;6.90;99.90;;;;;;4935029;29;20183;-74
2023/03/29 04:43:11;;;;;;;15.02;7.35;;;6.90;99.90;;;;;;4936932;29;20278;-74
2023/03/29 04:45:43;;;;;;;13.15;7.32;;;6.80;99.90;;;;;;4935077;29;20301;-74
2023/03/29 04:48:24;;;;;;;10.90;6.57;;;6.90;99.90;;;;;;4936887;29;20198;-75
2023/03/29 04:50:51;;;;;;;14.10;7.35;;;6.90;99.90;;;;;;4950719;29;20195;-75
2023/03/29 04:53:18;;;;;;;12.05;7.00;;;6.90;99.90;;;;;;4950893;28;20195;-76
2023/03/29 04:55:46;;;;;;;13.77;7.60;;;6.90;99.90;;;;;;4951364;29;20274;-75
2023/03/29 04:58:15;;;;;;;11.02;7.60;;;6.90;99.90;;;;;;4950599;29;20171;-74
2023/03/29 05:00:42;;;;;;;12.65;7.30;;;6.90;99.90;;;;;;4950510;28;20286;-75
2023/03/29 05:03:34;;;;;;;13.95;7.65;;;6.90;99.90;;;;;;4936130;28;20199;-75
2023/03/29 05:06:10;;;;;;;12.70;7.55;;;6.90;99.90;;;;;;4920132;29;20313;-74
2023/03/29 05:08:39;;;;;;;12.93;7.82;;;6.90;99.90;;;;;;4950673;29;20195;-74
2023/03/29 05:11:19;;;;;;;14.90;7.78;;;6.90;99.90;;;;;;4951185;29;20199;-74
2023/03/29 05:13:45;;;;;;;12.57;7.60;;;6.90;99.90;;;;;;4950303;29;20191;-77
2023/03/29 05:16:11;;;;;;;13.13;7.78;;;6.90;99.90;;;;;;4934598;29;20179;-75
2023/03/29 05:18:37;;;;;;;18.50;7.63;;;7.00;99.90;;;;;;4949958;28;20309;-74
2023/03/29 05:21:03;;;;;;;16.58;7.95;;;7.00;99.90;;;;;;4949965;29;20195;-74
2023/03/29 05:23:31;;;;;;;11.93;8.10;;;7.00;99.90;;;;;;4934509;29;20652;-75
2023/03/29 05:26:15;;;;;;;13.90;7.07;;;6.90;99.90;;;;;;4947762;29;20218;-74
2023/03/29 05:28:46;;;;;;;13.85;7.80;;;7.00;99.90;;;;;;4934462;29;20251;-75
2023/03/29 05:31:12;;;;;;;14.18;7.53;;;6.90;99.90;;;;;;4950312;29;20631;-75
2023/03/29 05:33:39;;;;;;;18.17;8.32;;;6.90;99.90;;;;;;4934314;29;20246;-75
2023/03/29 05:36:09;;;;;;;12.93;8.23;;;6.90;99.90;;;;;;4934326;29;20192;-74
2023/03/29 05:38:41;;;;;;;14.80;8.05;;;7.00;99.90;;;;;;4934571;29;20636;-75
2023/03/29 05:41:07;;;;;;;13.55;7.78;;;6.90;99.90;;;;;;4935866;29;20547;-76
2023/03/29 05:43:33;;;;;;;14.93;8.48;;;6.90;99.90;;;;;;4935524;29;20200;-74
2023/03/29 05:46:00;;;;;;;16.60;8.10;;;7.00;99.90;;;;;;4935028;29;20227;-74
2023/03/29 05:48:27;;;;;;;13.38;7.53;;;6.90;99.90;;;;;;4937848;29;20187;-73
2023/03/29 05:50:55;;;;;;;15.00;8.48;;;7.00;99.90;;;;;;4938212;29;20179;-74
2023/03/29 05:53:23;;;;;;;15.48;8.35;;;7.00;99.90;;;;;;4953665;28;20276;-73
2023/03/29 05:55:50;;;;;;;14.27;8.48;;;7.00;99.90;;;;;;4938529;29;20270;-72
2023/03/29 05:58:19;;;;;;;15.63;8.20;;;7.00;99.90;;;;;;4938000;29;20655;-72
2023/03/29 06:00:50;;;;;;;14.93;8.38;;;7.00;99.90;;;;;;4953354;29;20640;-73
2023/03/29 06:03:37;;;;;;;15.90;8.38;;;7.00;99.90;;;;;;4938135;28;20625;-72
2023/03/29 06:06:03;;;;;;;21.63;10.70;;;7.00;99.90;;;;;;4937656;29;20229;-76
2023/03/29 06:08:32;;;;;;;14.43;8.52;;;7.10;99.90;;;;;;4937483;29;20198;-73
2023/03/29 06:11:23;;;;;;;14.40;9.63;;;7.10;99.90;;;;;;4939057;28;20187;-74
2023/03/29 06:14:07;;;;;;;17.35;9.95;;;7.10;99.90;;;;;;4925047;29;20251;-73
2023/03/29 06:16:37;;;;;;;19.05;10.93;;;7.10;99.90;;;;;;4953485;29;20218;-80
2023/03/29 06:19:05;;;;;;;16.95;9.43;;;7.10;99.90;;;;;;4953815;28;20266;-74
2023/03/29 06:21:32;;;;;;;15.98;10.02;;;7.10;99.90;;;;;;4937241;29;20179;-81
2023/03/29 06:23:59;;;;;;;15.50;9.32;;;7.10;99.90;;;;;;4953273;29;20615;-75
2023/03/29 06:26:27;;;;;;;16.13;9.55;;;7.10;99.90;;;;;;4937196;29;20309;-73
2023/03/29 06:28:53;;;;;;;14.85;9.07;;;7.10;99.90;;;;;;4937113;29;20608;-74
2023/03/29 06:31:19;;;;;;;14.95;8.57;;;7.10;99.90;;;;;;4937951;29;20214;-73
2023/03/29 06:33:48;;;;;;;17.80;9.25;;;7.10;99.90;;;;;;4936665;29;20656;-77
2023/03/29 06:36:33;;;;;;;14.20;9.15;;;7.20;99.90;;;;;;4936967;29;20270;-79
2023/03/29 06:39:00;;;;;;;13.32;9.07;;;7.20;99.90;;;;;;4936201;29;20198;-73
2023/03/29 06:41:44;;;;;;;17.20;9.05;;;7.20;99.90;;;;;;4938319;29;20267;-73
2023/03/29 06:44:32;;;;;;;19.00;11.48;;;7.20;99.90;;;;;;4954612;28;20255;-73
2023/03/29 06:47:06;;;;;;;13.25;8.18;;;7.20;99.90;;;;;;4936642;29;20570;-74
2023/03/29 06:49:31;;;;;;;15.18;9.68;;;7.20;99.90;;;;;;4936336;29;20194;-73
2023/03/29 06:52:09;;;;;;;14.60;10.07;;;7.20;99.90;;;;;;4936028;29;20632;-74
2023/03/29 06:54:36;;;;;;;18.60;10.30;;;7.20;99.90;;;;;;4952451;29;20183;-73
2023/03/29 06:57:04;;;;;;;17.05;9.90;;;7.30;99.90;;;;;;4952013;29;20187;-72
2023/03/29 06:59:33;;;;;;;15.40;9.55;;;7.30;99.90;;;;;;4936463;29;20194;-76
2023/03/29 07:02:21;;;;;;;12.82;9.13;;;7.30;99.90;;;;;;4936542;29;20628;-74
2023/03/29 07:04:55;;;;;;;17.02;9.75;;;7.40;99.90;;;;;;4937000;29;20176;-73
2023/03/29 07:07:55;;;;;;;19.38;10.38;;;7.40;99.90;;;;;;4936724;29;20639;-74
2023/03/29 07:10:44;;;;;;;23.70;10.45;;;7.40;99.90;;;;;;4936089;29;20185;-74
2023/03/29 07:13:29;;;;;;;16.00;9.77;;;7.50;99.90;;;;;;4937444;29;20222;-74
2023/03/29 07:15:57;;;;;;;20.73;9.45;;;7.60;99.90;;;;;;4920591;29;20219;-73
2023/03/29 07:18:43;;;;;;;16.48;10.05;;;7.70;99.90;;;;;;4936165;29;20239;-74
2023/03/29 07:21:12;;;;;;;15.45;9.27;;;7.70;99.90;;;;;;4952409;28;20211;-75
2023/03/29 07:23:39;;;;;;;15.63;10.10;;;7.80;99.90;;;;;;4952067;29;20191;-75
2023/03/29 07:26:09;;;;;;;21.90;9.60;;;7.90;99.90;;;;;;4952027;29;20290;-74
2023/03/29 07:28:36;;;;;;;17.30;9.85;;;7.90;99.90;;;;;;4935915;29;20545;-73
2023/03/29 07:31:05;;;;;;;16.80;9.95;;;8.10;99.90;;;;;;4937161;29;20186;-74
2023/03/29 07:33:41;;;;;;;14.07;9.38;;;8.20;99.90;;;;;;4935906;29;20687;-75
2023/03/29 07:36:08;;;;;;;18.30;9.82;;;8.20;99.90;;;;;;4936264;29;20187;-75
2023/03/29 07:38:35;;;;;;;17.42;9.63;;;8.20;99.90;;;;;;4935459;29;20190;-74
2023/03/29 07:41:07;;;;;;;15.65;9.43;;;8.20;99.90;;;;;;4951853;29;20270;-74
2023/03/29 07:43:33;;;;;;;16.75;9.73;;;8.30;99.90;;;;;;4936088;29;20595;-74
2023/03/29 07:46:04;;;;;;;16.05;9.60;;;8.20;99.90;;;;;;4935474;29;20210;-75
2023/03/29 07:48:32;;;;;;;14.80;9.15;;;8.20;99.90;;;;;;4951607;28;20179;-75
2023/03/29 07:51:03;;;;;;;15.48;9.60;;;8.20;99.90;;;;;;4935126;29;20275;-74
2023/03/29 07:53:38;;;;;;;16.58;10.15;;;8.20;99.90;;;;;;4951335;28;20163;-74
2023/03/29 07:56:10;;;;;;;17.05;10.23;;;8.20;99.90;;;;;;4935545;29;20199;-75
2023/03/29 07:58:47;;;;;;;16.85;9.65;;;8.10;99.90;;;;;;4935286;28;20230;-74
2023/03/29 08:01:14;;;;;;;14.32;9.52;;;8.10;99.90;;;;;;4936865;29;20346;-74
2023/03/29 08:04:15;;;;;;;19.05;10.32;;;8.10;99.90;;;;;;4940041;29;20542;-73
2023/03/29 08:07:00;;;;;;;18.55;9.95;;;8.10;99.90;;;;;;4936083;29;20243;-78
2023/03/29 08:09:40;;;;;;;14.52;9.05;;;8.10;99.90;;;;;;4951618;28;20183;-73
2023/03/29 08:12:06;;;;;;;14.18;9.65;;;8.20;99.90;;;;;;4951011;29;20205;-74
2023/03/29 08:14:35;;;;;;;13.55;9.38;;;8.20;99.90;;;;;;4935117;29;20249;-73
2023/03/29 08:17:11;;;;;;;15.70;9.43;;;8.20;99.90;;;;;;4935070;29;20187;-73
2023/03/29 08:19:43;;;;;;;13.65;9.48;;;8.30;99.90;;;;;;4952014;28;20195;-74
2023/03/29 08:22:09;;;;;;;14.27;9.63;;;8.30;99.90;;;;;;4951482;28;20187;-73
2023/03/29 08:24:55;;;;;;;12.95;9.43;;;8.30;99.90;;;;;;4936077;29;20257;-75
2023/03/29 08:27:25;;;;;;;15.43;9.23;;;8.30;99.90;;;;;;4919516;29;20199;-73
2023/03/29 08:29:51;;;;;;;16.48;9.60;;;8.40;99.90;;;;;;4951483;29;20187;-73
2023/03/29 08:32:27;;;;;;;14.05;9.25;;;8.40;99.90;;;;;;4934821;29;20188;-73
2023/03/29 08:34:53;;;;;;;15.10;9.50;;;8.40;99.90;;;;;;4951605;28;20562;-75
2023/03/29 08:37:29;;;;;;;14.65;9.43;;;8.50;99.90;;;;;;4935273;28;20266;-74
2023/03/29 08:39:56;;;;;;;16.33;9.43;;;8.60;99.90;;;;;;4935918;29;20183;-74
2023/03/29 08:43:15;;;;;;;15.27;9.32;;;8.70;99.90;;;;;;4935937;29;20184;-74
2023/03/29 08:46:28;;;;;;;15.57;8.85;;;8.80;99.90;;;;;;4938948;29;20227;-75
2023/03/29 08:49:01;;;;;;;14.43;9.55;;;8.80;99.90;;;;;;4950921;29;20308;-74
2023/03/29 08:51:53;;;;;;;14.05;9.38;;;8.90;99.90;;;;;;4934326;29;20178;-74
2023/03/29 08:54:25;;;;;;;18.98;8.98;;;9.00;99.90;;;;;;4933882;29;20203;-75
2023/03/29 08:57:22;;;;;;;17.80;9.45;;;9.10;99.90;;;;;;4935850;29;20171;-74
2023/03/29 08:59:57;;;;;;;19.00;9.75;;;9.20;99.90;;;;;;4950695;29;20183;-74
2023/03/29 09:02:29;;;;;;;17.05;9.13;;;9.30;99.90;;;;;;4934413;29;20212;-73
2023/03/29 09:05:25;;;;;;;14.05;9.05;;;9.40;99.90;;;;;;4950597;29;20167;-74
2023/03/29 09:08:16;;;;;;;18.13;10.07;;;9.50;99.90;;;;;;4934860;29;20179;-74
2023/03/29 09:10:58;;;;;;;16.98;9.65;;;9.50;99.90;;;;;;4950544;28;20229;-74
2023/03/29 09:13:42;;;;;;;17.60;10.02;;;9.60;99.90;;;;;;4936249;29;20164;-73
2023/03/29 09:16:36;;;;;;;20.48;9.65;;;9.70;99.90;;;;;;4934732;29;20226;-74
2023/03/29 09:19:15;;;;;;;14.85;8.48;;;9.80;99.90;;;;;;4933709;29;20666;-73
2023/03/29 09:22:01;;;;;;;18.98;9.35;;;9.90;99.90;;;;;;4952021;28;20202;-75
2023/03/29 09:25:02;;;;;;;16.75;9.65;;;10.00;99.90;;;;;;4938312;29;20186;-73
2023/03/29 09:27:42;;;;;;;22.30;9.93;;;10.10;99.90;;;;;;4937915;29;20285;-73
2023/03/29 09:30:36;;;;;;;19.77;9.50;;;10.30;99.90;;;;;;4954305;29;20179;-73
2023/03/29 09:33:15;;;;;;;22.77;9.85;;;10.30;99.90;;;;;;4953853;29;20242;-73
2023/03/29 09:36:20;;;;;;;17.40;9.45;;;10.30;99.90;;;;;;4937564;29;20187;-73
2023/03/29 09:38:52;;;;;;;16.15;9.80;;;10.30;99.90;;;;;;4954107;29;20627;-73
2023/03/29 09:41:40;;;;;;;21.35;10.07;;;10.40;99.90;;;;;;4937998;29;20168;-73
2023/03/29 09:44:11;;;;;;;16.27;10.13;;;10.50;99.90;;;;;;4938094;29;20262;-74
2023/03/29 09:46:42;;;;;;;22.08;9.95;;;10.40;99.90;;;;;;4954325;28;20559;-75
2023/03/29 09:49:16;;;;;;;19.23;10.68;;;10.50;99.90;;;;;;4954170;29;20206;-75
2023/03/29 09:51:45;;;;;;;20.75;10.88;;;10.50;99.90;;;;;;4937969;29;20538;-76
2023/03/29 09:54:11;;;;;;;21.67;10.88;;;10.50;99.90;;;;;;4939884;29;20183;-73
2023/03/29 09:56:58;;;;;;;20.25;10.90;;;10.50;99.90;;;;;;4958051;28;20277;-79
2023/03/29 09:59:24;;;;;;;23.88;10.88;;;10.60;99.90;;;;;;4937955;29;20218;-78
2023/03/29 10:01:50;;;;;;;24.92;11.30;;;10.60;99.90;;;;;;4937506;29;20222;-74
2023/03/29 10:04:16;;;;;;;25.75;11.55;;;10.50;99.90;;;;;;4953303;29;20623;-74
2023/03/29 10:06:51;;;;;;;26.05;11.68;;;10.50;99.90;;;;;;4953683;28;20211;-73
2023/03/29 10:09:21;;;;;;;23.02;11.80;;;10.60;99.90;;;;;;4953544;29;20183;-76
2023/03/29 10:11:54;;;;;;;22.15;11.55;;;10.60;99.90;;;;;;4937944;29;20526;-79
2023/03/29 10:14:34;;;;;;;27.55;12.18;;;10.60;99.90;;;;;;4937602;29;20183;-74
2023/03/29 10:17:05;;;;;;;25.25;11.98;;;10.70;99.90;;;;;;4953642;29;20171;-73
2023/03/29 10:19:33;;;;;;;23.83;12.80;;;10.60;99.90;;;;;;4939711;29;20223;-76
2023/03/29 10:22:03;;;;;;;22.27;11.88;;;10.70;99.90;;;;;;4952747;29;20203;-73
2023/03/29 10:24:29;;;;;;;19.08;11.05;;;10.70;99.90;;;;;;4938305;29;20180;-74
2023/03/29 10:27:02;;;;;;;28.25;12.88;;;10.70;99.90;;;;;;4938071;29;20245;-73
2023/03/29 10:29:38;;;;;;;22.08;12.02;;;10.70;99.90;;;;;;4938730;29;20179;-74
2023/03/29 10:32:25;;;;;;;22.13;12.45;;;10.70;99.90;;;;;;4952951;28;20172;-76
2023/03/29 10:34:52;;;;;;;22.98;12.63;;;10.70;99.90;;;;;;4938650;29;20186;-73
2023/03/29 10:37:19;;;;;;;23.42;12.48;;;10.70;99.90;;;;;;4938227;29;20311;-73
2023/03/29 10:39:47;;;;;;;23.27;12.57;;;10.70;99.90;;;;;;4937795;29;20175;-73
2023/03/29 10:42:16;;;;;;;22.63;13.27;;;10.70;99.90;;;;;;4937963;29;20207;-75
2023/03/29 10:44:51;;;;;;;20.33;12.02;;;10.80;99.90;;;;;;4938045;29;20207;-77
2023/03/29 10:47:19;;;;;;;25.17;13.82;;;10.80;99.90;;;;;;4952502;28;20270;-74
2023/03/29 10:49:50;;;;;;;24.83;13.73;;;10.80;99.90;;;;;;4937675;29;20184;-76
2023/03/29 10:52:16;;;;;;;22.10;13.15;;;10.80;99.90;;;;;;4937098;29;20182;-74
2023/03/29 10:54:43;;;;;;;25.20;14.13;;;10.90;99.90;;;;;;4936385;29;20556;-73
2023/03/29 10:57:15;;;;;;;22.83;14.00;;;10.90;99.90;;;;;;4952430;29;20191;-73
2023/03/29 10:59:52;;;;;;;24.20;13.63;;;11.00;99.90;;;;;;4937326;29;20168;-73
2023/03/29 11:02:50;;;;;;;24.58;13.48;;;11.00;99.90;;;;;;4936138;29;20187;-73
2023/03/29 11:05:34;;;;;;;22.77;14.40;;;11.10;99.90;;;;;;4936287;29;20198;-73
2023/03/29 11:08:22;;;;;;;23.08;13.75;;;11.20;99.90;;;;;;4937734;29;20175;-73
2023/03/29 11:11:07;;;;;;;24.27;14.68;;;11.30;99.90;;;;;;4937332;28;20217;-73
2023/03/29 11:13:53;;;;;;;21.80;13.32;;;11.40;99.90;;;;;;4937081;29;20175;-73
2023/03/29 11:16:36;;;;;;;23.70;14.10;;;11.60;99.90;;;;;;4953105;29;20175;-82
2023/03/29 11:19:39;;;;;;;22.58;14.27;;;11.70;99.90;;;;;;4936863;29;20246;-73
2023/03/29 11:22:27;;;;;;;25.02;14.88;;;11.90;99.90;;;;;;4937184;29;20658;-74
2023/03/29 11:25:23;;;;;;;26.27;14.43;;;12.10;99.90;;;;;;4937656;29;20186;-77
2023/03/29 11:28:06;;;;;;;21.50;13.75;;;12.30;99.90;;;;;;4937294;29;20172;-73
2023/03/29 11:31:03;;;;;;;23.05;13.70;;;12.40;99.90;;;;;;4937244;29;20605;-73
2023/03/29 11:34:00;;;;;;;23.58;13.95;;;12.60;99.90;;;;;;4937030;29;20195;-74
2023/03/29 11:36:50;;;;;;;23.05;14.07;;;12.80;99.90;;;;;;4952703;28;20191;-74
2023/03/29 11:39:24;;;;;;;26.25;14.63;;;12.90;99.90;;;;;;4952596;29;20631;-73
2023/03/29 11:41:55;;;;;;;22.83;14.30;;;13.00;99.90;;;;;;4937420;29;20218;-76
2023/03/29 11:44:21;;;;;;;24.67;13.77;;;13.10;99.90;;;;;;4936447;29;20243;-74
2023/03/29 11:47:11;;;;;;;25.67;13.70;;;13.10;99.90;;;;;;4952463;29;20293;-73
2023/03/29 11:49:51;;;;;;;22.17;14.00;;;13.00;99.90;;;;;;4937672;29;20168;-73
2023/03/29 11:52:23;;;;;;;25.00;14.50;;;13.00;99.90;;;;;;4935808;29;20190;-73
2023/03/29 11:54:57;;;;;;;22.05;13.98;;;13.00;99.90;;;;;;4936611;29;20250;-73
2023/03/29 11:58:06;;;;;;;25.58;14.77;;;13.10;99.90;;;;;;4935692;29;20183;-75
2023/03/29 12:00:50;;;;;;;21.85;13.98;;;13.10;99.90;;;;;;4932528;29;20227;-78
2023/03/29 12:03:42;;;;;;;19.33;13.00;;;13.10;99.90;;;;;;4936309;29;20176;-73
2023/03/29 12:06:14;;;;;;;22.73;13.40;;;13.10;99.90;;;;;;4951778;29;20228;-73
2023/03/29 12:08:51;;;;;;;21.23;13.43;;;13.10;99.90;;;;;;4951168;28;20585;-73
2023/03/29 12:11:21;;;;;;;23.05;13.02;;;13.10;99.90;;;;;;4951804;29;20184;-74
2023/03/29 12:13:56;;;;;;;19.13;12.73;;;13.20;99.90;;;;;;4936342;29;20180;-74
2023/03/29 12:16:46;;;;;;;21.60;13.75;;;13.20;99.90;;;;;;4936067;29;20175;-74
2023/03/29 12:19:37;;;;;;;21.10;13.48;;;13.20;99.90;;;;;;4936392;29;20230;-74
2023/03/29 12:22:06;;;;;;;20.45;12.52;;;13.30;99.90;;;;;;4936234;29;20176;-74
2023/03/29 12:24:39;;;;;;;25.55;12.15;;;13.30;99.90;;;;;;4935250;29;20179;-73
2023/03/29 12:27:29;;;;;;;19.55;12.27;;;13.40;99.90;;;;;;4951343;29;20203;-75
2023/03/29 12:30:18;;;;;;;18.60;11.95;;;13.50;99.90;;;;;;4936008;29;20163;-74
2023/03/29 12:33:18;;;;;;;20.63;12.23;;;13.50;99.90;;;;;;4951606;28;20278;-73
2023/03/29 12:36:38;;;;;;;16.88;12.05;;;13.70;99.90;;;;;;4952832;28;20647;-74
2023/03/29 12:39:28;;;;;;;15.57;11.05;;;13.80;99.90;;;;;;4943934;29;20195;-74
2023/03/29 12:42:16;;;;;;;18.95;11.65;;;13.80;99.90;;;;;;4936066;29;20175;-74
2023/03/29 12:45:00;;;;;;;20.63;11.63;;;13.90;99.90;;;;;;4936505;29;20598;-74
2023/03/29 12:47:41;;;;;;;17.17;11.52;;;13.90;99.90;;;;;;4936049;29;20341;-74
2023/03/29 12:50:27;;;;;;;15.60;10.90;;;13.90;99.90;;;;;;4936846;29;20175;-75
2023/03/29 12:53:14;;;;;;;14.90;10.32;;;14.00;99.90;;;;;;4936016;29;20172;-73
2023/03/29 12:55:43;;;;;;;16.90;10.88;;;14.00;99.90;;;;;;4935761;29;20179;-74
2023/03/29 12:58:25;;;;;;;15.85;11.30;;;14.00;99.90;;;;;;4939485;29;20183;-73
2023/03/29 13:01:22;;;;;;;18.50;10.75;;;14.00;99.90;;;;;;4940471;29;20526;-74
2023/03/29 13:03:50;;;;;;;17.20;11.35;;;14.00;99.90;;;;;;4939247;29;20175;-74
2023/03/29 13:06:31;;;;;;;14.57;10.52;;;14.00;99.90;;;;;;4939296;29;20215;-73
2023/03/29 13:09:23;;;;;;;16.83;10.82;;;14.10;99.90;;;;;;4939427;29;20183;-73
2023/03/29 13:12:25;;;;;;;18.80;11.60;;;14.10;99.90;;;;;;4938715;29;20616;-74
2023/03/29 13:15:25;;;;;;;18.98;11.55;;;14.10;99.90;;;;;;4938541;28;20628;-74
2023/03/29 13:18:20;;;;;;;12.93;10.20;;;14.10;99.90;;;;;;4953659;29;20224;-74
2023/03/29 13:20:52;;;;;;;16.58;11.02;;;14.10;99.90;;;;;;4939134;29;20186;-74
2023/03/29 13:23:20;;;;;;;14.27;10.70;;;14.10;99.90;;;;;;4939215;29;20262;-74
2023/03/29 13:25:55;;;;;;;16.70;11.05;;;14.00;99.90;;;;;;4939879;29;20223;-74